createdAt,value
2023-01-19T00:02:08.273Z,8.25
2023-01-19T00:04:44.787Z,7.65
2023-01-19T00:07:18.914Z,8.73
2023-01-19T00:09:52.234Z,9.05
2023-01-19T00:12:25.735Z,8.73
2023-01-19T00:14:59.035Z,8.63
2023-01-19T00:17:32.580Z,9.48
2023-01-19T00:20:08.961Z,8.27
2023-01-19T00:22:42.376Z,8.43
2023-01-19T00:25:15.852Z,8.70
2023-01-19T00:27:50.806Z,8.50
2023-01-19T00:30:24.320Z,8.80
2023-01-19T00:32:58.258Z,8.98
2023-01-19T00:35:33.174Z,7.50
2023-01-19T00:38:06.761Z,7.38
2023-01-19T00:40:40.253Z,7.80
2023-01-19T00:43:13.521Z,8.35
2023-01-19T00:45:47.041Z,8.27
2023-01-19T00:48:20.422Z,8.30
2023-01-19T00:50:55.112Z,7.30
2023-01-19T00:53:32.431Z,6.78
2023-01-19T00:56:06.237Z,7.13
2023-01-19T01:01:12.872Z,7.43
2023-01-19T01:03:46.495Z,7.10
2023-01-19T01:06:21.214Z,7.10
2023-01-19T01:08:54.489Z,7.20
2023-01-19T01:11:27.795Z,6.90
2023-01-19T01:14:01.123Z,7.13
2023-01-19T01:16:34.701Z,7.07
2023-01-19T01:19:08.105Z,6.93
2023-01-19T01:21:43.216Z,6.85
2023-01-19T01:24:16.926Z,7.25
2023-01-19T01:26:50.266Z,6.00
2023-01-19T01:29:23.780Z,6.50
2023-01-19T01:31:57.084Z,6.63
2023-01-19T01:34:30.418Z,7.32
2023-01-19T01:37:08.185Z,5.78
2023-01-19T01:39:41.515Z,6.85
2023-01-19T01:42:18.563Z,7.00
2023-01-19T01:44:54.524Z,6.88
2023-01-19T01:47:33.640Z,6.63
2023-01-19T01:50:12.257Z,6.57
2023-01-19T01:53:06.527Z,7.05
2023-01-19T01:55:46.787Z,6.60
2023-01-19T01:58:20.212Z,6.53
2023-01-19T02:01:10.671Z,6.18
2023-01-19T02:03:44.151Z,6.97
2023-01-19T02:06:18.155Z,6.88
2023-01-19T02:09:15.019Z,6.93
2023-01-19T02:12:06.540Z,7.95
2023-01-19T02:14:39.856Z,7.15
2023-01-19T02:17:13.251Z,6.90
2023-01-19T02:19:46.802Z,6.45
2023-01-19T02:22:25.805Z,6.47
2023-01-19T02:25:00.803Z,6.60
2023-01-19T02:27:37.013Z,6.68
2023-01-19T02:30:12.242Z,7.00
2023-01-19T02:32:45.833Z,5.93
2023-01-19T02:35:23.441Z,6.25
2023-01-19T02:37:57.295Z,6.25
2023-01-19T02:43:08.790Z,6.32
2023-01-19T02:45:43.475Z,6.20
2023-01-19T02:48:18.470Z,6.50
2023-01-19T02:50:55.009Z,7.10
2023-01-19T02:54:04.589Z,6.68
2023-01-19T02:56:51.884Z,6.88
2023-01-19T02:59:37.194Z,6.40
2023-01-19T03:02:21.323Z,7.00
2023-01-19T03:07:52.198Z,7.25
2023-01-19T03:10:32.788Z,6.82
2023-01-19T03:13:15.103Z,7.57
2023-01-19T03:15:52.617Z,7.10
2023-01-19T03:18:30.844Z,7.25
2023-01-19T03:21:08.301Z,7.00
2023-01-19T03:23:44.237Z,6.47
2023-01-19T03:26:20.571Z,7.32
2023-01-19T03:28:56.838Z,6.78
2023-01-19T03:31:32.770Z,6.60
2023-01-19T03:34:10.495Z,6.43
2023-01-19T03:36:47.193Z,6.13
2023-01-19T03:39:23.950Z,6.45
2023-01-19T03:42:01.479Z,6.85
2023-01-19T03:44:38.696Z,7.00
2023-01-19T03:47:14.574Z,6.65
2023-01-19T03:49:48.321Z,7.22
2023-01-19T03:52:29.792Z,6.97
2023-01-19T03:55:04.892Z,7.05
2023-01-19T03:57:39.100Z,7.03
2023-01-19T04:00:15.666Z,6.50
2023-01-19T04:02:48.987Z,7.03
2023-01-19T04:05:22.358Z,5.63
2023-01-19T04:07:55.677Z,6.93
2023-01-19T04:10:29.023Z,7.00
2023-01-19T04:13:03.552Z,6.63
2023-01-19T04:15:38.778Z,6.65
2023-01-19T04:18:12.100Z,6.45
2023-01-19T04:20:45.443Z,6.10
2023-01-19T04:23:18.716Z,6.32
2023-01-19T04:25:52.036Z,6.28
2023-01-19T04:28:25.401Z,5.90
2023-01-19T04:31:00.247Z,6.63
2023-01-19T04:33:33.838Z,6.20
2023-01-19T04:36:08.518Z,6.93
2023-01-19T04:38:42.103Z,6.45
2023-01-19T04:41:15.488Z,6.13
2023-01-19T04:43:48.789Z,5.63
2023-01-19T04:46:23.513Z,6.85
2023-01-19T04:48:56.825Z,6.57
2023-01-19T04:51:30.113Z,6.80
2023-01-19T04:54:04.016Z,6.07
2023-01-19T04:56:37.830Z,5.93
2023-01-19T04:59:11.530Z,6.50
2023-01-19T05:01:46.195Z,6.43
2023-01-19T05:04:19.547Z,6.43
2023-01-19T05:06:54.245Z,5.47
2023-01-19T05:09:27.970Z,7.53
2023-01-19T05:12:01.272Z,6.57
2023-01-19T05:14:34.570Z,5.72
2023-01-19T05:17:09.249Z,6.85
2023-01-19T05:19:42.552Z,6.30
2023-01-19T05:22:15.893Z,6.68
2023-01-19T05:24:49.197Z,6.13
2023-01-19T05:27:22.562Z,6.85
2023-01-19T05:29:55.849Z,6.55
2023-01-19T05:32:30.527Z,6.25
2023-01-19T05:35:03.882Z,7.10
2023-01-19T05:37:37.279Z,7.15
2023-01-19T05:40:11.671Z,6.13
2023-01-19T05:42:45.344Z,7.05
2023-01-19T05:45:18.796Z,6.68
2023-01-19T05:47:54.699Z,6.97
2023-01-19T05:50:28.174Z,6.18
2023-01-19T05:53:02.037Z,6.82
2023-01-19T05:55:35.599Z,6.25
2023-01-19T05:58:08.878Z,6.43
2023-01-19T06:00:42.293Z,5.85
2023-01-19T06:03:16.972Z,6.20
2023-01-19T06:05:50.312Z,5.45
2023-01-19T06:08:23.566Z,6.63
2023-01-19T06:10:57.107Z,7.05
2023-01-19T06:13:30.437Z,6.65
2023-01-19T06:16:04.425Z,6.32
2023-01-19T06:18:39.155Z,6.72
2023-01-19T06:21:14.281Z,6.10
2023-01-19T06:23:47.742Z,6.93
2023-01-19T06:26:21.077Z,7.03
2023-01-19T06:28:54.609Z,7.22
2023-01-19T06:31:27.952Z,6.93
2023-01-19T06:34:02.994Z,6.38
2023-01-19T06:36:36.271Z,7.20
2023-01-19T06:39:10.774Z,7.20
2023-01-19T06:41:44.075Z,7.00
2023-01-19T06:44:17.524Z,6.65
2023-01-19T06:46:50.801Z,6.95
2023-01-19T06:49:26.459Z,7.07
2023-01-19T06:51:59.768Z,6.78
2023-01-19T06:54:33.130Z,6.63
2023-01-19T06:57:06.406Z,6.72
2023-01-19T06:59:39.760Z,7.05
2023-01-19T07:02:27.201Z,7.63
2023-01-19T07:05:03.121Z,6.93
2023-01-19T07:07:36.924Z,7.00
2023-01-19T07:12:47.737Z,6.65
2023-01-19T07:15:22.627Z,7.10
2023-01-19T07:17:59.700Z,7.13
2023-01-19T07:20:34.624Z,6.38
2023-01-19T07:23:07.930Z,7.10
2023-01-19T07:25:41.215Z,6.68
2023-01-19T07:28:15.994Z,6.85
2023-01-19T07:30:52.701Z,8.38
2023-01-19T07:33:26.297Z,7.97
2023-01-19T07:38:59.099Z,6.72
2023-01-19T07:41:32.543Z,7.15
2023-01-19T07:44:06.308Z,6.47
2023-01-19T07:49:13.479Z,7.30
2023-01-19T07:51:48.557Z,7.57
2023-01-19T07:54:21.888Z,19.90
2023-01-19T07:56:55.757Z,33.55
2023-01-19T07:59:30.335Z,33.28
2023-01-19T08:02:03.770Z,35.35
2023-01-19T08:04:37.242Z,35.85
2023-01-19T08:07:11.945Z,36.38
2023-01-19T08:09:45.578Z,32.55
2023-01-19T08:12:18.947Z,28.67
2023-01-19T08:14:52.301Z,27.77
2023-01-19T08:17:25.633Z,27.17
2023-01-19T08:19:59.356Z,25.30
2023-01-19T08:25:07.720Z,21.05
2023-01-19T08:27:40.993Z,24.15
2023-01-19T08:30:14.903Z,20.88
2023-01-19T08:32:48.195Z,20.13
2023-01-19T08:35:22.564Z,21.30
2023-01-19T08:38:01.113Z,20.20
2023-01-19T08:40:36.402Z,19.33
2023-01-19T08:43:11.914Z,18.70
2023-01-19T08:45:48.419Z,16.85
2023-01-19T08:48:23.615Z,16.25
2023-01-19T08:50:56.916Z,16.50
2023-01-19T08:53:31.588Z,16.20
2023-01-19T08:56:05.914Z,14.90
2023-01-19T08:58:39.636Z,15.23
2023-01-19T09:01:16.827Z,15.27
2023-01-19T09:03:50.673Z,13.82
2023-01-19T09:06:25.287Z,15.48
2023-01-19T09:08:59.956Z,13.75
2023-01-19T09:11:34.948Z,14.48
2023-01-19T09:14:08.470Z,13.75
2023-01-19T09:16:42.004Z,12.75
2023-01-19T09:19:15.286Z,13.70
2023-01-19T09:21:48.574Z,12.18
2023-01-19T09:24:23.449Z,13.00
2023-01-19T09:26:56.913Z,13.85
2023-01-19T09:29:30.235Z,11.50
2023-01-19T09:32:03.532Z,13.02
2023-01-19T09:34:36.800Z,12.98
2023-01-19T09:37:10.104Z,12.10
2023-01-19T09:39:44.888Z,11.48
2023-01-19T09:42:24.665Z,12.15
2023-01-19T09:44:58.072Z,11.85
2023-01-19T09:47:32.109Z,11.95
2023-01-19T09:50:11.379Z,11.40
2023-01-19T09:52:54.839Z,12.55
2023-01-19T09:55:29.589Z,10.73
2023-01-19T09:58:04.594Z,11.88
2023-01-19T10:00:38.054Z,11.63
2023-01-19T10:03:17.316Z,10.70
2023-01-19T10:05:55.873Z,11.18
2023-01-19T10:08:40.191Z,11.48
2023-01-19T10:11:38.128Z,11.50
2023-01-19T10:14:26.542Z,11.13
2023-01-19T10:17:08.587Z,11.27
2023-01-19T10:19:46.868Z,9.73
2023-01-19T10:22:23.024Z,10.57
2023-01-19T10:24:58.581Z,11.85
2023-01-19T10:27:35.729Z,11.32
2023-01-19T10:30:16.460Z,10.02
2023-01-19T10:32:50.422Z,9.95
2023-01-19T10:35:25.506Z,9.45
2023-01-19T10:38:03.079Z,10.75
2023-01-19T10:40:42.160Z,10.75
2023-01-19T10:43:39.766Z,10.18
2023-01-19T10:46:24.213Z,10.35
2023-01-19T10:48:57.730Z,10.05
2023-01-19T10:51:31.540Z,10.02
2023-01-19T10:54:06.358Z,9.50
2023-01-19T10:56:40.428Z,10.02
2023-01-19T10:59:32.910Z,9.10
2023-01-19T11:02:19.011Z,9.30
2023-01-19T11:04:54.089Z,9.43
2023-01-19T11:07:31.230Z,9.82
2023-01-19T11:10:22.547Z,9.52
2023-01-19T11:13:02.818Z,8.75
2023-01-19T11:15:43.774Z,9.07
2023-01-19T11:18:27.078Z,10.07
2023-01-19T11:21:02.937Z,9.95
2023-01-19T11:23:42.074Z,9.73
2023-01-19T11:26:25.470Z,9.90
2023-01-19T11:29:00.546Z,10.02
2023-01-19T11:31:36.813Z,9.90
2023-01-19T11:34:26.448Z,8.85
2023-01-19T11:37:02.032Z,8.85
2023-01-19T11:39:48.304Z,9.27
2023-01-19T11:42:22.240Z,7.93
2023-01-19T11:47:39.297Z,9.20
2023-01-19T11:50:23.584Z,10.65
2023-01-19T11:53:02.062Z,8.98
2023-01-19T11:55:39.559Z,10.63
2023-01-19T11:58:16.571Z,12.48
2023-01-19T12:00:54.576Z,12.20
2023-01-19T12:03:32.875Z,14.10
2023-01-19T12:06:10.962Z,12.80
2023-01-19T12:08:49.109Z,14.63
2023-01-19T12:11:27.642Z,14.63
2023-01-19T12:14:02.371Z,14.90
2023-01-19T12:16:39.320Z,14.52
2023-01-19T12:19:19.357Z,14.82
2023-01-19T12:21:53.122Z,16.20
2023-01-19T12:24:32.964Z,15.32
2023-01-19T12:27:16.351Z,14.63
2023-01-19T12:29:50.362Z,16.35
2023-01-19T12:32:34.898Z,15.40
2023-01-19T12:35:49.633Z,16.38
2023-01-19T12:38:45.275Z,14.20
2023-01-19T12:41:26.855Z,14.60
2023-01-19T12:44:22.387Z,17.85
2023-01-19T12:46:57.567Z,15.77
2023-01-19T12:49:34.582Z,16.80
2023-01-19T12:52:28.085Z,30.90
2023-01-19T12:55:07.730Z,20.50
2023-01-19T12:57:49.488Z,24.83
2023-01-19T13:00:40.815Z,25.17
2023-01-19T13:03:46.980Z,27.05
2023-01-19T13:06:20.327Z,28.30
2023-01-19T13:09:04.359Z,28.67
2023-01-19T13:14:38.637Z,23.38
2023-01-19T13:17:28.019Z,22.50
2023-01-19T13:20:25.489Z,24.30
2023-01-19T13:23:18.590Z,22.92
2023-01-19T13:26:03.517Z,22.67
2023-01-19T13:28:41.951Z,20.23
2023-01-19T13:31:16.050Z,18.50
2023-01-19T13:33:52.807Z,20.33
2023-01-19T13:36:30.661Z,19.73
2023-01-19T13:39:07.313Z,16.50
2023-01-19T13:41:43.278Z,16.00
2023-01-19T13:44:23.768Z,16.75
2023-01-19T13:46:59.727Z,16.25
2023-01-19T13:49:36.578Z,15.98
2023-01-19T13:52:14.775Z,15.93
2023-01-19T13:54:53.198Z,14.48
2023-01-19T13:57:29.688Z,14.90
2023-01-19T14:00:09.009Z,14.55
2023-01-19T14:02:55.290Z,13.57
2023-01-19T14:05:31.296Z,13.02
2023-01-19T14:08:07.364Z,13.73
2023-01-19T14:10:42.807Z,13.70
2023-01-19T14:13:20.204Z,13.85
2023-01-19T14:15:56.394Z,13.90
2023-01-19T14:18:31.548Z,14.32
2023-01-19T14:21:08.107Z,14.68
2023-01-19T14:23:47.988Z,13.75
2023-01-19T14:26:49.701Z,16.98
2023-01-19T14:29:29.219Z,14.75
2023-01-19T14:32:12.140Z,14.65
2023-01-19T14:34:47.750Z,14.73
2023-01-19T14:37:27.262Z,14.80
2023-01-19T14:40:04.707Z,15.40
2023-01-19T14:42:46.328Z,18.00
2023-01-19T14:45:24.276Z,14.80
2023-01-19T14:47:59.845Z,14.80
2023-01-19T14:50:36.041Z,13.38
2023-01-19T14:53:17.201Z,14.30
2023-01-19T14:55:52.865Z,13.52
2023-01-19T14:58:28.361Z,12.80
2023-01-19T15:01:03.619Z,13.27
2023-01-19T15:03:45.589Z,12.18
2023-01-19T15:06:21.454Z,13.68
2023-01-19T15:08:55.794Z,13.48
2023-01-19T15:11:33.063Z,14.65
2023-01-19T15:14:06.457Z,12.27
2023-01-19T15:16:41.461Z,12.95
2023-01-19T15:19:16.953Z,13.15
2023-01-19T15:21:50.403Z,12.98
2023-01-19T15:24:23.806Z,12.57
2023-01-19T15:27:01.599Z,12.98
2023-01-19T15:29:37.223Z,11.73
2023-01-19T15:32:14.941Z,12.70
2023-01-19T15:34:48.213Z,11.50
2023-01-19T15:37:21.645Z,12.13
2023-01-19T15:39:54.955Z,12.05
2023-01-19T15:42:28.305Z,12.23
2023-01-19T15:45:01.626Z,12.82
2023-01-19T15:47:36.303Z,11.45
2023-01-19T15:50:10.945Z,11.40
2023-01-19T15:52:44.378Z,10.55
2023-01-19T15:55:17.780Z,11.07
2023-01-19T15:57:51.117Z,11.23
2023-01-19T16:00:24.816Z,10.88
2023-01-19T16:05:42.547Z,9.63
2023-01-19T16:08:16.733Z,10.18
2023-01-19T16:10:50.076Z,12.85
2023-01-19T16:13:23.445Z,11.98
2023-01-19T16:15:56.819Z,12.55
2023-01-19T16:18:31.882Z,11.52
2023-01-19T16:21:05.491Z,11.65
2023-01-19T16:23:39.074Z,12.38
2023-01-19T16:26:29.516Z,12.77
2023-01-19T16:29:07.986Z,11.43
2023-01-19T16:31:42.974Z,13.77
2023-01-19T16:34:18.125Z,14.55
2023-01-19T16:36:52.074Z,14.55
2023-01-19T16:39:25.439Z,14.07
2023-01-19T16:41:58.791Z,13.82
2023-01-19T16:44:32.128Z,14.40
2023-01-19T16:47:06.280Z,13.20
2023-01-19T16:49:41.080Z,13.50
2023-01-19T16:52:14.443Z,14.80
2023-01-19T16:54:47.826Z,14.27
2023-01-19T16:57:21.956Z,14.48
2023-01-19T16:59:55.967Z,20.67
2023-01-19T17:02:29.532Z,23.95
2023-01-19T17:07:41.572Z,28.05
2023-01-19T17:10:15.062Z,30.10
2023-01-19T17:12:48.368Z,33.67
2023-01-19T17:15:21.921Z,35.83
2023-01-19T17:18:01.273Z,38.47
2023-01-19T17:20:35.188Z,36.42
2023-01-19T17:23:10.271Z,34.22
2023-01-19T17:25:43.941Z,34.83
2023-01-19T17:30:51.907Z,36.90
2023-01-19T17:33:26.160Z,34.35
2023-01-19T17:36:03.866Z,31.38
2023-01-19T17:38:38.957Z,32.72
2023-01-19T17:41:15.870Z,31.63
2023-01-19T17:43:50.419Z,30.67
2023-01-19T17:46:26.373Z,32.90
2023-01-19T17:49:01.548Z,34.08
2023-01-19T17:51:35.021Z,38.83
2023-01-19T17:54:10.707Z,38.30
2023-01-19T17:56:44.023Z,39.65
2023-01-19T17:59:17.497Z,39.33
2023-01-19T18:01:51.133Z,43.03
2023-01-19T18:06:58.101Z,36.33
2023-01-19T18:09:32.843Z,36.88
2023-01-19T18:12:06.430Z,33.17
2023-01-19T18:14:40.300Z,34.25
2023-01-19T18:17:13.691Z,31.45
2023-01-19T18:19:47.105Z,31.08
2023-01-19T18:22:20.438Z,32.20
2023-01-19T18:24:55.587Z,31.52
2023-01-19T18:27:30.303Z,30.08
2023-01-19T18:30:03.764Z,30.00
2023-01-19T18:32:37.197Z,30.27
2023-01-19T18:35:10.998Z,28.88
2023-01-19T18:37:44.348Z,29.65
2023-01-19T18:40:19.561Z,28.48
2023-01-19T18:42:53.035Z,28.30
2023-01-19T18:45:26.451Z,28.92
2023-01-19T18:48:01.576Z,28.58
2023-01-19T18:50:35.257Z,27.63
2023-01-19T18:53:08.671Z,27.30
2023-01-19T18:55:52.090Z,27.20
2023-01-19T18:58:28.546Z,26.27
2023-01-19T19:01:02.651Z,24.17
2023-01-19T19:03:37.004Z,25.95
2023-01-19T19:06:10.380Z,26.83
2023-01-19T19:08:44.426Z,22.83
2023-01-19T19:11:19.455Z,23.80
2023-01-19T19:13:54.067Z,22.52
2023-01-19T19:16:28.568Z,22.73
2023-01-19T19:19:02.019Z,22.25
2023-01-19T19:21:35.606Z,22.55
2023-01-19T19:24:09.271Z,21.55
2023-01-19T19:26:44.029Z,21.38
2023-01-19T19:29:17.432Z,20.60
2023-01-19T19:31:50.786Z,20.63
2023-01-19T19:34:25.145Z,18.15
2023-01-19T19:37:01.045Z,18.42
2023-01-19T19:39:38.364Z,18.20
2023-01-19T19:42:13.230Z,18.23
2023-01-19T19:44:46.655Z,17.95
2023-01-19T19:47:20.047Z,16.70
2023-01-19T19:49:54.614Z,16.17
2023-01-19T19:52:28.711Z,17.35
2023-01-19T19:55:02.234Z,16.58
2023-01-19T19:57:36.999Z,16.38
2023-01-19T20:00:11.902Z,16.48
2023-01-19T20:02:45.615Z,13.82
2023-01-19T20:05:19.215Z,16.13
2023-01-19T20:07:52.710Z,15.05
2023-01-19T20:10:26.348Z,14.32
2023-01-19T20:13:01.252Z,14.63
2023-01-19T20:15:38.627Z,15.15
2023-01-19T20:18:12.254Z,14.73
2023-01-19T20:20:46.939Z,14.15
2023-01-19T20:23:20.316Z,14.98
2023-01-19T20:25:54.433Z,13.68
2023-01-19T20:28:29.419Z,13.20
2023-01-19T20:31:10.773Z,12.75
2023-01-19T20:33:44.523Z,13.52
2023-01-19T20:38:52.316Z,12.48
2023-01-19T20:41:26.646Z,13.30
2023-01-19T20:44:01.655Z,12.25
2023-01-19T20:46:35.172Z,13.30
2023-01-19T20:49:08.591Z,13.43
2023-01-19T20:51:45.102Z,11.70
2023-01-19T20:54:19.870Z,11.75
2023-01-19T20:56:53.551Z,12.38
2023-01-19T20:59:28.747Z,12.98
2023-01-19T21:02:02.184Z,11.35
2023-01-19T21:04:35.656Z,12.93
2023-01-19T21:07:09.165Z,12.25
2023-01-19T21:09:42.805Z,11.88
2023-01-19T21:12:16.261Z,10.90
2023-01-19T21:14:51.071Z,11.95
2023-01-19T21:17:24.341Z,10.98
2023-01-19T21:19:57.637Z,11.90
2023-01-19T21:22:30.981Z,10.38
2023-01-19T21:25:04.650Z,10.68
2023-01-19T21:27:38.020Z,11.65
2023-01-19T21:30:13.393Z,12.23
2023-01-19T21:32:46.747Z,11.73
2023-01-19T21:35:20.191Z,10.77
2023-01-19T21:37:53.586Z,10.85
2023-01-19T21:40:26.910Z,11.35
2023-01-19T21:43:00.414Z,9.85
2023-01-19T21:45:35.589Z,10.60
2023-01-19T21:48:09.626Z,11.60
2023-01-19T21:50:43.054Z,11.23
2023-01-19T21:53:17.253Z,10.68
2023-01-19T21:55:50.811Z,11.13
2023-01-19T21:58:24.694Z,11.73
2023-01-19T22:01:03.548Z,10.20
2023-01-19T22:03:36.921Z,11.45
2023-01-19T22:06:12.340Z,10.75
2023-01-19T22:08:46.579Z,10.65
2023-01-19T22:11:21.714Z,11.07
2023-01-19T22:13:55.211Z,9.93
2023-01-19T22:16:31.000Z,10.32
2023-01-19T22:19:06.257Z,10.15
2023-01-19T22:21:39.558Z,10.98
2023-01-19T22:24:13.224Z,9.68
2023-01-19T22:26:46.786Z,10.40
2023-01-19T22:29:20.095Z,10.38
2023-01-19T22:31:55.048Z,10.35
2023-01-19T22:34:28.609Z,10.15
2023-01-19T22:37:02.664Z,10.77
2023-01-19T22:39:36.688Z,10.63
2023-01-19T22:42:10.427Z,10.60
2023-01-19T22:44:43.734Z,10.52
2023-01-19T22:47:18.518Z,9.50
2023-01-19T22:49:51.811Z,10.48
2023-01-19T22:52:25.280Z,10.48
2023-01-19T22:54:58.631Z,10.77
2023-01-19T22:57:35.876Z,9.88
2023-01-19T23:00:10.703Z,10.40
2023-01-19T23:02:45.574Z,10.05
2023-01-19T23:05:18.919Z,9.80
2023-01-19T23:07:52.274Z,10.43
2023-01-19T23:10:25.598Z,9.73
2023-01-19T23:12:58.893Z,10.40
2023-01-19T23:15:34.094Z,10.18
2023-01-19T23:18:09.014Z,10.90
2023-01-19T23:20:42.327Z,10.48
2023-01-19T23:23:15.714Z,9.50
2023-01-19T23:25:49.027Z,11.20
2023-01-19T23:28:22.391Z,11.40
2023-01-19T23:30:55.798Z,10.60
2023-01-19T23:33:30.510Z,10.55
2023-01-19T23:36:03.848Z,11.98
2023-01-19T23:38:37.179Z,10.23
2023-01-19T23:41:10.546Z,11.25
2023-01-19T23:43:44.052Z,11.88
2023-01-19T23:46:18.395Z,11.30
2023-01-19T23:48:53.288Z,12.40
2023-01-19T23:51:28.734Z,11.52
2023-01-19T23:54:02.612Z,11.98
2023-01-19T23:59:12.646Z,12.43
